createdAt,value
2022-09-06T00:00:42.766Z,101715.31
2022-09-06T00:03:09.747Z,101720.31
2022-09-06T00:05:37.134Z,101733.97
2022-09-06T00:08:05.516Z,101740.50
2022-09-06T00:10:35.203Z,101731.41
2022-09-06T00:13:04.368Z,101720.47
2022-09-06T00:15:31.686Z,101703.00
2022-09-06T00:18:00.721Z,101701.34
2022-09-06T00:20:28.812Z,101712.09
2022-09-06T00:22:59.579Z,101714.13
2022-09-06T00:25:27.056Z,101713.75
2022-09-06T00:27:57.702Z,101706.78
2022-09-06T00:30:25.140Z,101718.34
2022-09-06T00:32:52.951Z,101724.56
2022-09-06T00:35:20.470Z,101725.66
2022-09-06T00:37:46.919Z,101733.03
2022-09-06T00:40:14.152Z,101731.47
2022-09-06T00:42:41.010Z,101717.03
2022-09-06T00:45:08.825Z,101711.97
2022-09-06T00:47:38.869Z,101707.63
2022-09-06T00:50:06.490Z,101703.31
2022-09-06T00:52:34.435Z,101704.97
2022-09-06T00:55:01.165Z,101711.97
2022-09-06T00:57:30.851Z,101712.25
2022-09-06T00:59:57.829Z,101719.22
2022-09-06T01:02:24.289Z,101717.06
2022-09-06T01:04:52.067Z,101720.38
2022-09-06T01:07:57.533Z,101726.09
2022-09-06T01:10:50.425Z,101721.16
2022-09-06T01:13:28.722Z,101727.56
2022-09-06T01:16:11.250Z,101736.47
2022-09-06T01:19:07.132Z,101735.03
2022-09-06T01:22:28.045Z,101747.06
2022-09-06T01:25:12.454Z,101755.41
2022-09-06T01:28:00.439Z,101741.00
2022-09-06T01:30:26.855Z,101736.38
2022-09-06T01:33:03.802Z,101738.94
2022-09-06T01:35:38.394Z,101746.03
2022-09-06T01:38:07.144Z,101734.56
2022-09-06T01:40:36.486Z,101722.47
2022-09-06T01:43:11.205Z,101721.34
2022-09-06T01:45:56.369Z,101718.84
2022-09-06T01:48:47.239Z,101705.72
2022-09-06T01:51:38.690Z,101707.41
2022-09-06T01:54:12.282Z,101701.63
2022-09-06T01:57:05.883Z,101699.00
2022-09-06T02:00:10.702Z,101689.53
2022-09-06T02:03:08.521Z,101685.56
2022-09-06T02:05:51.034Z,101678.72
2022-09-06T02:08:25.499Z,101686.88
2022-09-06T02:11:02.495Z,101679.59
2022-09-06T02:14:05.125Z,101667.09
2022-09-06T02:16:35.571Z,101659.31
2022-09-06T02:19:17.198Z,101639.94
2022-09-06T02:21:46.529Z,101627.41
2022-09-06T02:24:23.075Z,101608.88
2022-09-06T02:26:50.067Z,101592.44
2022-09-06T02:29:17.437Z,101576.81
2022-09-06T02:31:56.210Z,101565.63
2022-09-06T02:34:22.739Z,101559.03
2022-09-06T02:36:49.633Z,101556.94
2022-09-06T02:39:16.601Z,101550.19
2022-09-06T02:41:46.568Z,101551.19
2022-09-06T02:44:13.129Z,101545.44
2022-09-06T02:46:39.553Z,101543.06
2022-09-06T02:49:05.998Z,101551.00
2022-09-06T02:51:38.188Z,101551.94
2022-09-06T02:54:05.219Z,101544.88
2022-09-06T02:56:33.696Z,101551.25
2022-09-06T02:59:00.775Z,101548.59
2022-09-06T03:01:27.271Z,101559.19
2022-09-06T03:03:53.742Z,101565.41
2022-09-06T03:06:20.191Z,101559.44
2022-09-06T03:08:46.663Z,101559.44
2022-09-06T03:11:13.139Z,101561.34
2022-09-06T03:13:39.686Z,101552.59
2022-09-06T03:16:06.164Z,101552.59
2022-09-06T03:18:33.010Z,101560.31
2022-09-06T03:20:59.690Z,101557.59
2022-09-06T03:23:28.209Z,101558.53
2022-09-06T03:25:54.971Z,101560.50
2022-09-06T03:28:22.905Z,101563.47
2022-09-06T03:30:51.536Z,101569.84
2022-09-06T03:33:19.139Z,101576.69
2022-09-06T03:35:57.308Z,101575.00
2022-09-06T03:38:26.074Z,101579.25
2022-09-06T03:40:53.098Z,101575.28
2022-09-06T03:43:20.999Z,101571.09
2022-09-06T03:45:49.610Z,101570.09
2022-09-06T03:48:17.201Z,101574.69
2022-09-06T03:50:49.300Z,101574.34
2022-09-06T03:53:16.927Z,101574.72
2022-09-06T03:55:52.223Z,101584.44
2022-09-06T03:58:20.869Z,101590.09
2022-09-06T04:00:47.553Z,101587.09
2022-09-06T04:03:14.199Z,101591.06
2022-09-06T04:05:44.565Z,101598.03
2022-09-06T04:08:10.991Z,101597.31
2022-09-06T04:10:38.198Z,101604.88
2022-09-06T04:13:04.673Z,101600.06
2022-09-06T04:15:31.066Z,101618.94
2022-09-06T04:17:58.396Z,101610.50
2022-09-06T04:20:24.839Z,101611.25
2022-09-06T04:22:51.240Z,101608.97
2022-09-06T04:25:17.735Z,101611.84
2022-09-06T04:27:44.166Z,101621.91
2022-09-06T04:30:10.804Z,101615.31
2022-09-06T04:32:37.266Z,101622.63
2022-09-06T04:35:04.092Z,101619.72
2022-09-06T04:37:30.487Z,101621.19
2022-09-06T04:39:56.942Z,101620.09
2022-09-06T04:42:23.433Z,101640.38
2022-09-06T04:44:50.021Z,101640.38
2022-09-06T04:47:18.218Z,101637.97
2022-09-06T04:49:47.954Z,101642.19
2022-09-06T04:52:14.352Z,101638.34
2022-09-06T04:54:40.902Z,101644.22
2022-09-06T04:57:07.647Z,101642.31
2022-09-06T04:59:34.280Z,101643.03
2022-09-06T05:02:00.749Z,101650.94
2022-09-06T05:04:27.267Z,101659.00
2022-09-06T05:07:08.221Z,101656.38
2022-09-06T05:09:35.195Z,101649.88
2022-09-06T05:12:01.889Z,101649.78
2022-09-06T05:14:29.427Z,101651.81
2022-09-06T05:16:56.037Z,101652.06
2022-09-06T05:19:22.677Z,101661.13
2022-09-06T05:21:51.061Z,101661.03
2022-09-06T05:24:17.599Z,101669.56
2022-09-06T05:26:44.034Z,101666.19
2022-09-06T05:29:10.430Z,101669.69
2022-09-06T05:31:36.954Z,101669.69
2022-09-06T05:34:03.465Z,101667.16
2022-09-06T05:36:31.251Z,101672.56
2022-09-06T05:38:58.715Z,101680.59
2022-09-06T05:41:25.691Z,101685.25
2022-09-06T05:43:52.125Z,101688.97
2022-09-06T05:46:18.659Z,101692.34
2022-09-06T05:48:52.019Z,101684.28
2022-09-06T05:51:18.484Z,101689.34
2022-09-06T05:53:45.547Z,101674.25
2022-09-06T05:56:14.099Z,101678.56
2022-09-06T05:58:40.628Z,101673.28
2022-09-06T06:01:20.472Z,101674.84
2022-09-06T06:03:56.919Z,101664.88
2022-09-06T06:06:24.654Z,101676.06
2022-09-06T06:08:51.077Z,101681.22
2022-09-06T06:11:18.224Z,101679.31
2022-09-06T06:13:45.176Z,101676.56
2022-09-06T06:16:14.637Z,101682.78
2022-09-06T06:18:41.385Z,101681.94
2022-09-06T06:21:16.183Z,101681.59
2022-09-06T06:23:44.638Z,101688.19
2022-09-06T06:26:12.289Z,101678.00
2022-09-06T06:28:39.986Z,101678.34
2022-09-06T06:31:08.190Z,101669.84
2022-09-06T06:33:36.326Z,101665.75
2022-09-06T06:36:06.862Z,101663.47
2022-09-06T06:38:36.019Z,101666.47
2022-09-06T06:41:06.535Z,101664.41
2022-09-06T06:43:37.947Z,101666.59
2022-09-06T06:46:16.087Z,101661.53
2022-09-06T06:48:44.193Z,101660.66
2022-09-06T06:51:16.714Z,101658.25
2022-09-06T06:53:47.599Z,101652.34
2022-09-06T06:56:21.481Z,101646.56
2022-09-06T06:58:50.167Z,101654.09
2022-09-06T07:01:18.270Z,101655.66
2022-09-06T07:03:44.865Z,101650.22
2022-09-06T07:06:12.297Z,101645.41
2022-09-06T07:08:40.287Z,101634.75
2022-09-06T07:11:08.164Z,101640.13
2022-09-06T07:13:34.810Z,101639.47
2022-09-06T07:16:16.547Z,101633.00
2022-09-06T07:18:45.587Z,101623.44
2022-09-06T07:24:07.177Z,101620.19
2022-09-06T07:26:36.283Z,101618.88
2022-09-06T07:29:04.437Z,101618.38
2022-09-06T07:34:19.271Z,101618.97
2022-09-06T07:36:45.838Z,101615.75
2022-09-06T07:39:12.343Z,101619.09
2022-09-06T07:41:38.765Z,101625.69
2022-09-06T07:44:05.226Z,101626.97
2022-09-06T07:46:32.546Z,101627.69
2022-09-06T07:48:59.166Z,101634.44
2022-09-06T07:51:25.601Z,101636.28
2022-09-06T07:54:07.375Z,101633.19
2022-09-06T07:56:42.002Z,101639.53
2022-09-06T07:59:09.351Z,101636.19
2022-09-06T08:01:40.067Z,101630.78
2022-09-06T08:04:12.878Z,101634.56
2022-09-06T08:09:28.926Z,101627.16
2022-09-06T08:11:55.395Z,101616.09
2022-09-06T08:14:21.838Z,101616.00
2022-09-06T08:16:48.270Z,101622.00
2022-09-06T08:19:14.733Z,101614.03
2022-09-06T08:21:41.175Z,101622.53
2022-09-06T08:24:11.998Z,101612.19
2022-09-06T08:26:40.509Z,101611.47
2022-09-06T08:29:08.824Z,101609.50
2022-09-06T08:31:39.076Z,101605.41
2022-09-06T08:34:05.833Z,101601.50
2022-09-06T08:36:32.898Z,101597.53
2022-09-06T08:39:05.386Z,101597.38
2022-09-06T08:41:53.426Z,101605.22
2022-09-06T08:47:21.657Z,101598.50
2022-09-06T08:49:54.601Z,101593.44
2022-09-06T08:52:41.734Z,101592.56
2022-09-06T08:55:24.936Z,101591.84
2022-09-06T08:58:29.251Z,101584.66
2022-09-06T09:01:13.736Z,101582.25
2022-09-06T09:03:43.807Z,101581.91
2022-09-06T09:06:11.730Z,101577.66
2022-09-06T09:08:46.354Z,101579.41
2022-09-06T09:11:18.236Z,101589.25
2022-09-06T09:14:01.726Z,101582.78
2022-09-06T09:16:28.596Z,101578.53
2022-09-06T09:19:03.869Z,101578.59
2022-09-06T09:21:40.443Z,101569.63
2022-09-06T09:24:09.372Z,101580.91
2022-09-06T09:26:44.150Z,101584.09
2022-09-06T09:29:13.238Z,101581.66
2022-09-06T09:31:53.742Z,101578.59
2022-09-06T09:34:33.295Z,101565.19
2022-09-06T09:39:59.515Z,101568.63
2022-09-06T09:42:33.469Z,101574.19
2022-09-06T09:45:01.441Z,101566.78
2022-09-06T09:47:33.241Z,101571.50
2022-09-06T09:50:00.092Z,101574.69
2022-09-06T09:52:29.441Z,101570.50
2022-09-06T09:55:05.737Z,101573.34
2022-09-06T09:57:44.644Z,101570.91
2022-09-06T10:00:13.419Z,101567.16
2022-09-06T10:02:42.268Z,101571.31
2022-09-06T10:05:19.243Z,101579.28
2022-09-06T10:07:51.591Z,101571.50
2022-09-06T10:10:23.766Z,101563.50
2022-09-06T10:13:12.599Z,101574.69
2022-09-06T10:15:40.899Z,101564.00
2022-09-06T10:18:35.483Z,101567.09
2022-09-06T10:21:09.156Z,101560.97
2022-09-06T10:26:59.657Z,101572.00
2022-09-06T10:29:29.032Z,101565.00
2022-09-06T10:32:21.714Z,101570.03
2022-09-06T10:35:09.518Z,101561.34
2022-09-06T10:37:44.474Z,101569.69
2022-09-06T10:40:16.126Z,101558.38
2022-09-06T10:42:54.843Z,101562.34
2022-09-06T10:45:42.957Z,101570.03
2022-09-06T10:48:29.722Z,101573.88
2022-09-06T10:51:06.033Z,101579.22
2022-09-06T10:54:10.575Z,101573.72
2022-09-06T10:57:00.585Z,101586.41
2022-09-06T10:59:39.813Z,101580.94
2022-09-06T11:02:29.565Z,101579.75
2022-09-06T11:10:48.191Z,101583.41
2022-09-06T11:13:17.534Z,101579.38
2022-09-06T11:15:55.058Z,101581.38
2022-09-06T11:18:46.604Z,101580.19
2022-09-06T11:21:37.913Z,101581.97
2022-09-06T11:24:33.459Z,101589.38
2022-09-06T11:27:27.994Z,101593.06
2022-09-06T11:29:56.622Z,101591.34
2022-09-06T11:32:34.465Z,101598.97
2022-09-06T11:35:07.268Z,101601.59
2022-09-06T11:37:39.531Z,101597.88
2022-09-06T11:40:27.641Z,101595.41
2022-09-06T11:42:54.978Z,101584.47
2022-09-06T11:45:41.826Z,101594.53
2022-09-06T11:48:23.431Z,101591.28
2022-09-06T11:50:58.957Z,101593.91
2022-09-06T11:53:30.905Z,101592.78
2022-09-06T11:56:00.438Z,101593.47
2022-09-06T11:58:32.723Z,101597.34
2022-09-06T12:01:16.438Z,101594.78
2022-09-06T12:06:40.632Z,101598.72
2022-09-06T12:09:36.387Z,101598.03
2022-09-06T12:12:04.029Z,101596.28
2022-09-06T12:14:42.589Z,101586.91
2022-09-06T12:17:09.646Z,101599.41
2022-09-06T12:19:45.373Z,101589.34
2022-09-06T12:22:30.296Z,101594.28
2022-09-06T12:25:02.795Z,101590.97
2022-09-06T12:27:35.371Z,101585.69
2022-09-06T12:30:07.586Z,101587.66
2022-09-06T12:32:52.161Z,101571.13
2022-09-06T12:38:14.791Z,101584.03
2022-09-06T12:40:45.855Z,101591.28
2022-09-06T12:43:15.270Z,101589.63
2022-09-06T12:45:46.819Z,101586.88
2022-09-06T12:48:27.127Z,101572.94
2022-09-06T12:51:09.635Z,101565.19
2022-09-06T12:53:36.129Z,101559.34
2022-09-06T12:56:09.521Z,101561.75
2022-09-06T12:58:36.775Z,101560.38
2022-09-06T13:01:13.689Z,101558.34
2022-09-06T13:04:05.042Z,101550.13
2022-09-06T13:06:39.024Z,101564.19
2022-09-06T13:09:11.033Z,101552.38
2022-09-06T13:11:41.863Z,101551.47
2022-09-06T13:14:25.612Z,101555.16
2022-09-06T13:16:57.901Z,101546.63
2022-09-06T13:19:42.597Z,101550.22
2022-09-06T13:22:13.460Z,101541.72
2022-09-06T13:24:51.968Z,101542.78
2022-09-06T13:27:30.817Z,101535.56
2022-09-06T13:30:09.274Z,101525.59
2022-09-06T13:32:46.538Z,101523.91
2022-09-06T13:35:23.917Z,101512.31
2022-09-06T13:37:51.026Z,101517.94
2022-09-06T13:40:53.858Z,101512.78
2022-09-06T13:43:24.662Z,101506.28
2022-09-06T13:46:08.276Z,101513.25
2022-09-06T13:48:35.880Z,101504.63
2022-09-06T13:51:07.337Z,101500.56
2022-09-06T13:53:35.047Z,101493.66
2022-09-06T13:56:01.818Z,101486.81
2022-09-06T13:58:29.699Z,101483.88
2022-09-06T14:00:56.849Z,101478.59
2022-09-06T14:03:31.498Z,101476.19
2022-09-06T14:06:00.175Z,101476.06
2022-09-06T14:08:43.369Z,101480.06
2022-09-06T14:11:14.724Z,101477.94
2022-09-06T14:13:41.179Z,101475.84
2022-09-06T14:16:07.779Z,101476.22
2022-09-06T14:18:34.239Z,101489.72
2022-09-06T14:21:00.759Z,101488.13
2022-09-06T14:23:27.784Z,101490.25
2022-09-06T14:25:58.716Z,101486.09
2022-09-06T14:28:26.482Z,101502.81
2022-09-06T14:30:53.678Z,101496.53
2022-09-06T14:33:24.854Z,101498.63
2022-09-06T14:35:54.168Z,101497.16
2022-09-06T14:38:28.430Z,101497.19
2022-09-06T14:41:14.828Z,101498.09
2022-09-06T14:44:00.889Z,101498.34
2022-09-06T14:46:29.669Z,101507.38
2022-09-06T14:49:01.602Z,101512.56
2022-09-06T14:51:29.252Z,101499.97
2022-09-06T14:53:59.078Z,101493.09
2022-09-06T14:56:27.035Z,101499.50
2022-09-06T14:58:57.400Z,101500.53
2022-09-06T15:01:28.528Z,101488.97
2022-09-06T15:04:00.726Z,101494.63
2022-09-06T15:06:27.742Z,101492.03
2022-09-06T15:08:59.180Z,101487.25
2022-09-06T15:11:41.043Z,101485.97
2022-09-06T15:14:13.385Z,101469.28
2022-09-06T15:16:39.817Z,101465.84
2022-09-06T15:19:07.775Z,101469.94
2022-09-06T15:21:34.494Z,101457.66
2022-09-06T15:24:02.039Z,101464.34
2022-09-06T15:26:29.441Z,101465.47
2022-09-06T15:28:56.461Z,101462.03
2022-09-06T15:31:23.151Z,101457.88
2022-09-06T15:33:51.102Z,101458.91
2022-09-06T15:36:18.002Z,101462.63
2022-09-06T15:38:48.096Z,101459.56
2022-09-06T15:41:17.775Z,101458.38
2022-09-06T15:43:49.325Z,101460.31
2022-09-06T15:46:18.422Z,101460.47
2022-09-06T15:48:47.177Z,101465.66
2022-09-06T15:51:17.147Z,101466.03
2022-09-06T15:53:44.218Z,101469.34
2022-09-06T15:56:14.250Z,101472.88
2022-09-06T15:58:40.995Z,101468.19
2022-09-06T16:01:13.254Z,101459.94
2022-09-06T16:03:42.607Z,101454.00
2022-09-06T16:06:28.230Z,101456.88
2022-09-06T16:09:04.842Z,101455.97
2022-09-06T16:11:32.719Z,101456.38
2022-09-06T16:13:59.470Z,101461.69
2022-09-06T16:16:26.050Z,101461.31
2022-09-06T16:18:52.632Z,101447.06
2022-09-06T16:21:19.068Z,101437.09
2022-09-06T16:23:57.287Z,101445.03
2022-09-06T16:26:25.530Z,101446.91
2022-09-06T16:28:52.854Z,101436.94
2022-09-06T16:31:21.176Z,101434.63
2022-09-06T16:33:48.966Z,101437.66
2022-09-06T16:36:16.864Z,101428.69
2022-09-06T16:38:46.398Z,101438.41
2022-09-06T16:41:26.465Z,101441.34
2022-09-06T16:43:53.537Z,101440.19
2022-09-06T16:46:22.034Z,101436.22
2022-09-06T16:48:56.865Z,101439.97
2022-09-06T16:51:25.509Z,101440.31
2022-09-06T16:53:53.281Z,101428.97
2022-09-06T16:56:22.878Z,101439.19
2022-09-06T16:58:53.379Z,101446.25
2022-09-06T17:01:20.684Z,101444.47
2022-09-06T17:03:47.931Z,101447.34
2022-09-06T17:06:15.153Z,101454.63
2022-09-06T17:08:41.738Z,101449.78
2022-09-06T17:11:10.966Z,101450.13
2022-09-06T17:13:38.163Z,101439.50
2022-09-06T17:16:24.189Z,101446.34
2022-09-06T17:18:53.684Z,101442.38
2022-09-06T17:21:22.597Z,101442.25
2022-09-06T17:23:50.317Z,101443.59
2022-09-06T17:26:19.671Z,101442.22
2022-09-06T17:28:46.682Z,101444.28
2022-09-06T17:31:13.795Z,101439.81
2022-09-06T17:33:40.442Z,101457.50
2022-09-06T17:36:12.671Z,101449.34
2022-09-06T17:38:40.342Z,101455.53
2022-09-06T17:41:06.975Z,101454.53
2022-09-06T17:43:36.472Z,101452.38
2022-09-06T17:46:04.671Z,101452.72
2022-09-06T17:48:31.273Z,101455.88
2022-09-06T17:51:05.268Z,101456.41
2022-09-06T17:53:31.888Z,101452.56
2022-09-06T17:55:58.499Z,101451.06
2022-09-06T17:58:25.192Z,101454.94
2022-09-06T18:00:51.790Z,101458.59
2022-09-06T18:03:20.276Z,101456.09
2022-09-06T18:05:46.755Z,101450.25
2022-09-06T18:08:13.288Z,101446.09
2022-09-06T18:10:39.804Z,101462.44
2022-09-06T18:13:06.746Z,101459.91
2022-09-06T18:15:39.967Z,101463.25
2022-09-06T18:18:06.486Z,101457.78
2022-09-06T18:20:33.443Z,101458.94
2022-09-06T18:23:00.383Z,101454.28
2022-09-06T18:25:28.413Z,101452.13
2022-09-06T18:27:54.911Z,101446.94
2022-09-06T18:30:21.319Z,101445.41
2022-09-06T18:32:47.749Z,101432.75
2022-09-06T18:35:14.306Z,101437.44
2022-09-06T18:37:40.997Z,101426.25
2022-09-06T18:40:08.166Z,101415.41
2022-09-06T18:42:34.807Z,101426.41
2022-09-06T18:45:02.068Z,101431.41
2022-09-06T18:47:28.484Z,101417.75
2022-09-06T18:49:54.977Z,101425.34
2022-09-06T18:52:21.719Z,101428.19
2022-09-06T18:54:49.387Z,101421.34
2022-09-06T18:57:17.180Z,101429.47
2022-09-06T18:59:44.448Z,101435.28
2022-09-06T19:02:11.312Z,101431.47
2022-09-06T19:04:37.867Z,101428.63
2022-09-06T19:07:04.383Z,101429.78
2022-09-06T19:09:30.857Z,101421.13
2022-09-06T19:11:57.401Z,101416.13
2022-09-06T19:14:23.858Z,101414.94
2022-09-06T19:16:51.722Z,101404.09
2022-09-06T19:19:18.402Z,101404.59
2022-09-06T19:21:44.934Z,101392.09
2022-09-06T19:24:12.259Z,101387.22
2022-09-06T19:26:41.782Z,101390.50
2022-09-06T19:29:12.785Z,101399.81
2022-09-06T19:31:39.548Z,101394.97
2022-09-06T19:34:06.450Z,101390.66
2022-09-06T19:36:33.228Z,101393.94
2022-09-06T19:39:04.403Z,101387.41
2022-09-06T19:41:34.136Z,101394.38
2022-09-06T19:44:02.575Z,101377.22
2022-09-06T19:46:29.039Z,101362.38
2022-09-06T19:48:56.372Z,101356.03
2022-09-06T19:51:24.279Z,101352.84
2022-09-06T19:53:57.764Z,101339.50
2022-09-06T19:56:31.674Z,101342.31
2022-09-06T19:59:00.367Z,101347.94
2022-09-06T20:01:29.578Z,101345.06
2022-09-06T20:03:56.897Z,101338.56
2022-09-06T20:06:23.547Z,101331.41
2022-09-06T20:08:52.243Z,101334.56
2022-09-06T20:11:20.066Z,101325.88
2022-09-06T20:13:46.813Z,101319.22
2022-09-06T20:16:14.305Z,101324.66
2022-09-06T20:18:40.718Z,101319.34
2022-09-06T20:21:07.691Z,101317.88
2022-09-06T20:23:34.795Z,101311.69
2022-09-06T20:26:04.436Z,101314.34
2022-09-06T20:28:32.464Z,101308.19
2022-09-06T20:31:01.173Z,101307.53
2022-09-06T20:33:28.554Z,101297.03
2022-09-06T20:35:59.475Z,101301.69
2022-09-06T20:38:26.398Z,101299.88
2022-09-06T20:41:05.455Z,101294.56
2022-09-06T20:43:35.135Z,101294.69
2022-09-06T20:46:04.218Z,101288.84
2022-09-06T20:48:32.457Z,101288.03
2022-09-06T20:51:01.755Z,101294.16
2022-09-06T20:53:31.773Z,101289.03
2022-09-06T20:56:04.143Z,101294.78
2022-09-06T20:58:31.613Z,101288.13
2022-09-06T21:00:59.824Z,101287.91
2022-09-06T21:03:27.063Z,101283.38
2022-09-06T21:05:54.133Z,101276.41
2022-09-06T21:08:20.837Z,101280.72
2022-09-06T21:10:47.413Z,101253.63
2022-09-06T21:13:13.951Z,101255.75
2022-09-06T21:15:43.257Z,101245.06
2022-09-06T21:18:09.928Z,101239.34
2022-09-06T21:20:36.638Z,101231.69
2022-09-06T21:23:03.786Z,101238.97
2022-09-06T21:25:30.257Z,101251.59
2022-09-06T21:27:56.725Z,101245.59
2022-09-06T21:30:23.269Z,101246.06
2022-09-06T21:32:53.803Z,101238.09
2022-09-06T21:35:20.234Z,101243.22
2022-09-06T21:37:46.739Z,101230.94
2022-09-06T21:40:13.254Z,101230.94
2022-09-06T21:42:39.798Z,101235.25
2022-09-06T21:45:06.552Z,101239.06
2022-09-06T21:47:32.965Z,101241.03
2022-09-06T21:49:59.381Z,101231.09
2022-09-06T21:52:25.847Z,101231.91
2022-09-06T21:54:52.276Z,101231.91
2022-09-06T21:57:18.804Z,101226.06
2022-09-06T21:59:48.370Z,101222.91
2022-09-06T22:02:15.475Z,101230.88
2022-09-06T22:04:42.312Z,101233.69
2022-09-06T22:07:08.814Z,101240.00
2022-09-06T22:09:35.315Z,101241.78
2022-09-06T22:12:01.903Z,101233.16
2022-09-06T22:14:28.342Z,101246.28
2022-09-06T22:16:54.767Z,101235.81
2022-09-06T22:19:21.182Z,101243.25
2022-09-06T22:21:47.600Z,101255.47
2022-09-06T22:24:16.030Z,101256.09
2022-09-06T22:26:42.637Z,101278.38
2022-09-06T22:29:10.959Z,101314.25
2022-09-06T22:31:38.147Z,101371.78
2022-09-06T22:34:04.743Z,101410.69
2022-09-06T22:36:31.665Z,101434.88
2022-09-06T22:38:59.079Z,101448.03
2022-09-06T22:41:27.624Z,101506.91
2022-09-06T22:43:54.193Z,101530.59
2022-09-06T22:46:20.827Z,101535.06
2022-09-06T22:48:47.396Z,101536.69
2022-09-06T22:51:13.961Z,101535.25
2022-09-06T22:53:40.466Z,101519.06
2022-09-06T22:56:07.178Z,101535.63
2022-09-06T22:58:35.310Z,101512.81
2022-09-06T23:01:09.318Z,101504.31
2022-09-06T23:03:35.974Z,101507.88
2022-09-06T23:06:03.614Z,101504.41
2022-09-06T23:08:30.467Z,101475.75
2022-09-06T23:10:57.033Z,101486.28
2022-09-06T23:13:23.461Z,101455.19
2022-09-06T23:15:50.010Z,101453.91
2022-09-06T23:18:16.510Z,101443.22
2022-09-06T23:20:43.051Z,101469.97
2022-09-06T23:23:12.129Z,101460.97
2022-09-06T23:25:39.020Z,101458.22
2022-09-06T23:28:08.098Z,101448.00
2022-09-06T23:30:38.058Z,101450.78
2022-09-06T23:33:04.743Z,101437.47
2022-09-06T23:35:31.248Z,101448.97
2022-09-06T23:37:57.716Z,101443.94
2022-09-06T23:40:24.140Z,101443.25
2022-09-06T23:42:50.546Z,101445.13
2022-09-06T23:45:17.234Z,101436.88
2022-09-06T23:47:43.654Z,101427.53
2022-09-06T23:50:10.255Z,101415.78
2022-09-06T23:52:39.340Z,101407.03
2022-09-06T23:55:06.450Z,101404.63
2022-09-06T23:57:32.962Z,101406.06
2022-09-06T23:59:59.399Z,101405.31
